sensor_id;sensor_type;location;lat;lon;timestamp;pressure;altitude;pressure_sealevel;temperature;humidity
49000;BME280;34808;48.144;17.158;2022-11-12T00:00:51;101572.41;;;9.25;100.00
49000;BME280;34808;48.144;17.158;2022-11-12T00:03:17;101617.91;;;9.40;100.00
49000;BME280;34808;48.144;17.158;2022-11-12T00:05:43;101439.22;;;8.36;100.00
49000;BME280;34808;48.144;17.158;2022-11-12T00:08:13;101466.31;;;8.40;100.00
49000;BME280;34808;48.144;17.158;2022-11-12T00:10:39;101520.09;;;8.89;100.00
49000;BME280;34808;48.144;17.158;2022-11-12T00:13:06;101587.75;;;9.31;100.00
49000;BME280;34808;48.144;17.158;2022-11-12T00:15:35;101397.25;;;8.22;100.00
49000;BME280;34808;48.144;17.158;2022-11-12T00:18:00;101555.53;;;9.16;100.00
49000;BME280;34808;48.144;17.158;2022-11-12T00:20:25;101603.94;;;9.38;100.00
49000;BME280;34808;48.144;17.158;2022-11-12T00:22:51;101597.63;;;9.39;100.00
49000;BME280;34808;48.144;17.158;2022-11-12T00:25:16;101435.34;;;8.31;100.00
49000;BME280;34808;48.144;17.158;2022-11-12T00:27:42;101580.47;;;9.15;100.00
49000;BME280;34808;48.144;17.158;2022-11-12T00:30:07;101618.19;;;9.37;100.00
49000;BME280;34808;48.144;17.158;2022-11-12T00:32:36;101497.34;;;8.58;100.00
49000;BME280;34808;48.144;17.158;2022-11-12T00:35:03;101571.44;;;9.08;100.00
49000;BME280;34808;48.144;17.158;2022-11-12T00:37:31;101571.72;;;9.23;100.00
49000;BME280;34808;48.144;17.158;2022-11-12T00:39:57;101557.16;;;9.09;100.00
49000;BME280;34808;48.144;17.158;2022-11-12T00:42:22;101505.59;;;8.83;100.00
49000;BME280;34808;48.144;17.158;2022-11-12T00:44:47;101529.28;;;8.95;100.00
49000;BME280;34808;48.144;17.158;2022-11-12T00:47:14;101504.38;;;8.77;100.00
49000;BME280;34808;48.144;17.158;2022-11-12T00:49:42;101583.75;;;9.27;100.00
49000;BME280;34808;48.144;17.158;2022-11-12T00:52:07;101478.81;;;8.48;100.00
49000;BME280;34808;48.144;17.158;2022-11-12T00:54:33;101561.34;;;9.11;100.00
49000;BME280;34808;48.144;17.158;2022-11-12T00:56:58;101537.84;;;8.88;100.00
49000;BME280;34808;48.144;17.158;2022-11-12T00:59:24;101553.34;;;8.93;100.00
49000;BME280;34808;48.144;17.158;2022-11-12T01:01:50;101334.66;;;7.54;100.00
49000;BME280;34808;48.144;17.158;2022-11-12T01:04:15;101500.91;;;8.48;100.00
49000;BME280;34808;48.144;17.158;2022-11-12T01:06:40;101535.72;;;8.74;100.00
49000;BME280;34808;48.144;17.158;2022-11-12T01:09:07;101497.59;;;8.36;100.00
49000;BME280;34808;48.144;17.158;2022-11-12T01:11:33;101557.94;;;8.73;100.00
49000;BME280;34808;48.144;17.158;2022-11-12T01:14:02;101549.44;;;8.69;100.00
49000;BME280;34808;48.144;17.158;2022-11-12T01:16:30;101538.72;;;8.61;100.00
49000;BME280;34808;48.144;17.158;2022-11-12T01:19:00;101536.94;;;8.51;100.00
49000;BME280;34808;48.144;17.158;2022-11-12T01:21:28;101563.59;;;8.59;100.00
49000;BME280;34808;48.144;17.158;2022-11-12T01:23:56;101530.09;;;8.48;100.00
49000;BME280;34808;48.144;17.158;2022-11-12T01:26:22;101520.91;;;8.43;100.00
49000;BME280;34808;48.144;17.158;2022-11-12T01:28:48;101556.41;;;8.70;100.00
49000;BME280;34808;48.144;17.158;2022-11-12T01:33:45;101554.28;;;8.45;100.00
49000;BME280;34808;48.144;17.158;2022-11-12T01:36:13;101343.28;;;7.28;100.00
49000;BME280;34808;48.144;17.158;2022-11-12T01:38:40;101456.88;;;7.99;100.00
49000;BME280;34808;48.144;17.158;2022-11-12T01:41:07;101431.81;;;7.83;100.00
49000;BME280;34808;48.144;17.158;2022-11-12T01:43:32;101531.91;;;8.48;100.00
49000;BME280;34808;48.144;17.158;2022-11-12T01:46:00;101489.72;;;8.16;100.00
49000;BME280;34808;48.144;17.158;2022-11-12T01:49:06;101436.00;;;7.76;100.00
49000;BME280;34808;48.144;17.158;2022-11-12T01:51:38;101540.50;;;8.32;100.00
49000;BME280;34808;48.144;17.158;2022-11-12T01:54:08;101546.16;;;8.47;100.00
49000;BME280;34808;48.144;17.158;2022-11-12T01:56:35;101530.97;;;8.39;100.00
49000;BME280;34808;48.144;17.158;2022-11-12T01:59:09;101550.13;;;8.43;100.00
49000;BME280;34808;48.144;17.158;2022-11-12T02:01:36;101551.59;;;8.17;100.00
49000;BME280;34808;48.144;17.158;2022-11-12T02:04:02;101515.72;;;8.13;100.00
49000;BME280;34808;48.144;17.158;2022-11-12T02:06:29;101500.09;;;8.10;100.00
49000;BME280;34808;48.144;17.158;2022-11-12T02:08:55;101507.25;;;8.09;100.00
49000;BME280;34808;48.144;17.158;2022-11-12T02:11:21;101486.91;;;7.90;100.00
49000;BME280;34808;48.144;17.158;2022-11-12T02:13:48;101539.53;;;8.33;100.00
49000;BME280;34808;48.144;17.158;2022-11-12T02:16:37;101553.91;;;8.40;100.00
49000;BME280;34808;48.144;17.158;2022-11-12T02:19:04;101410.91;;;7.70;100.00
49000;BME280;34808;48.144;17.158;2022-11-12T02:21:31;101537.91;;;8.50;100.00
49000;BME280;34808;48.144;17.158;2022-11-12T02:26:36;101510.66;;;8.48;100.00
49000;BME280;34808;48.144;17.158;2022-11-12T02:29:03;101491.03;;;8.41;100.00
49000;BME280;34808;48.144;17.158;2022-11-12T02:31:28;101502.09;;;8.54;100.00
49000;BME280;34808;48.144;17.158;2022-11-12T02:33:54;101495.81;;;8.55;100.00
49000;BME280;34808;48.144;17.158;2022-11-12T02:36:20;101523.56;;;8.71;100.00
49000;BME280;34808;48.144;17.158;2022-11-12T02:38:50;101487.44;;;8.50;100.00
49000;BME280;34808;48.144;17.158;2022-11-12T02:41:19;101505.72;;;8.63;100.00
49000;BME280;34808;48.144;17.158;2022-11-12T02:43:44;101440.94;;;8.27;100.00
49000;BME280;34808;48.144;17.158;2022-11-12T02:46:10;101472.34;;;8.32;100.00
49000;BME280;34808;48.144;17.158;2022-11-12T02:48:38;101484.28;;;8.46;100.00
49000;BME280;34808;48.144;17.158;2022-11-12T02:51:04;101547.72;;;8.78;100.00
49000;BME280;34808;48.144;17.158;2022-11-12T02:53:29;101520.50;;;8.66;100.00
49000;BME280;34808;48.144;17.158;2022-11-12T02:55:56;101394.50;;;7.85;100.00
49000;BME280;34808;48.144;17.158;2022-11-12T02:58:22;101506.78;;;8.42;100.00
49000;BME280;34808;48.144;17.158;2022-11-12T03:00:48;101393.25;;;7.89;100.00
49000;BME280;34808;48.144;17.158;2022-11-12T03:03:16;101358.19;;;7.67;100.00
49000;BME280;34808;48.144;17.158;2022-11-12T03:05:42;101440.69;;;8.21;100.00
49000;BME280;34808;48.144;17.158;2022-11-12T03:08:11;101438.88;;;8.21;100.00
49000;BME280;34808;48.144;17.158;2022-11-12T03:10:38;101472.28;;;8.42;100.00
49000;BME280;34808;48.144;17.158;2022-11-12T03:13:06;101439.81;;;8.30;100.00
49000;BME280;34808;48.144;17.158;2022-11-12T03:15:32;101414.69;;;8.24;100.00
49000;BME280;34808;48.144;17.158;2022-11-12T03:17:59;101462.59;;;8.51;100.00
49000;BME280;34808;48.144;17.158;2022-11-12T03:20:31;101444.22;;;8.40;100.00
49000;BME280;34808;48.144;17.158;2022-11-12T03:23:09;101510.97;;;8.73;100.00
49000;BME280;34808;48.144;17.158;2022-11-12T03:25:35;101482.16;;;8.50;100.00
49000;BME280;34808;48.144;17.158;2022-11-12T03:28:06;101502.16;;;8.73;100.00
49000;BME280;34808;48.144;17.158;2022-11-12T03:30:36;101488.94;;;8.63;100.00
49000;BME280;34808;48.144;17.158;2022-11-12T03:33:02;101513.09;;;8.69;100.00
49000;BME280;34808;48.144;17.158;2022-11-12T03:35:27;101354.38;;;7.70;100.00
49000;BME280;34808;48.144;17.158;2022-11-12T03:37:53;101467.03;;;8.32;100.00
49000;BME280;34808;48.144;17.158;2022-11-12T03:40:18;101329.13;;;7.47;100.00
49000;BME280;34808;48.144;17.158;2022-11-12T03:42:45;101483.13;;;8.31;100.00
49000;BME280;34808;48.144;17.158;2022-11-12T03:45:11;101501.94;;;8.37;100.00
49000;BME280;34808;48.144;17.158;2022-11-12T03:47:44;101513.25;;;8.40;100.00
49000;BME280;34808;48.144;17.158;2022-11-12T03:50:10;101384.03;;;7.55;100.00
49000;BME280;34808;48.144;17.158;2022-11-12T03:52:36;101509.63;;;8.41;100.00
49000;BME280;34808;48.144;17.158;2022-11-12T03:55:03;101509.44;;;8.42;100.00
49000;BME280;34808;48.144;17.158;2022-11-12T03:57:28;101503.97;;;8.44;100.00
49000;BME280;34808;48.144;17.158;2022-11-12T03:59:54;101508.41;;;8.53;100.00
49000;BME280;34808;48.144;17.158;2022-11-12T04:02:19;101442.44;;;8.12;100.00
49000;BME280;34808;48.144;17.158;2022-11-12T04:04:49;101504.13;;;8.42;100.00
49000;BME280;34808;48.144;17.158;2022-11-12T04:07:33;101480.00;;;8.35;100.00
49000;BME280;34808;48.144;17.158;2022-11-12T04:10:17;101490.88;;;8.42;100.00
49000;BME280;34808;48.144;17.158;2022-11-12T04:12:42;101476.38;;;8.36;100.00
49000;BME280;34808;48.144;17.158;2022-11-12T04:15:26;101484.63;;;8.33;100.00
49000;BME280;34808;48.144;17.158;2022-11-12T04:17:52;101479.28;;;8.43;100.00
49000;BME280;34808;48.144;17.158;2022-11-12T04:20:36;101498.78;;;8.52;100.00
49000;BME280;34808;48.144;17.158;2022-11-12T04:23:20;101492.44;;;8.35;100.00
49000;BME280;34808;48.144;17.158;2022-11-12T04:25:48;101494.50;;;8.41;100.00
49000;BME280;34808;48.144;17.158;2022-11-12T04:28:34;101503.84;;;8.45;100.00
49000;BME280;34808;48.144;17.158;2022-11-12T04:31:02;101461.97;;;8.11;100.00
49000;BME280;34808;48.144;17.158;2022-11-12T04:33:27;101471.16;;;8.16;100.00
49000;BME280;34808;48.144;17.158;2022-11-12T04:35:52;101375.41;;;7.53;100.00
49000;BME280;34808;48.144;17.158;2022-11-12T04:38:18;101446.09;;;8.01;100.00
49000;BME280;34808;48.144;17.158;2022-11-12T04:40:43;101538.50;;;8.44;100.00
49000;BME280;34808;48.144;17.158;2022-11-12T04:43:27;101487.38;;;8.13;100.00
49000;BME280;34808;48.144;17.158;2022-11-12T04:46:11;101422.63;;;7.78;100.00
49000;BME280;34808;48.144;17.158;2022-11-12T04:48:36;101494.06;;;8.18;100.00
49000;BME280;34808;48.144;17.158;2022-11-12T04:51:03;101477.41;;;7.97;100.00
49000;BME280;34808;48.144;17.158;2022-11-12T04:53:48;101512.19;;;8.22;100.00
49000;BME280;34808;48.144;17.158;2022-11-12T04:56:13;101507.03;;;8.21;100.00
49000;BME280;34808;48.144;17.158;2022-11-12T04:58:39;101522.22;;;8.29;100.00
49000;BME280;34808;48.144;17.158;2022-11-12T05:01:06;101459.59;;;7.79;100.00
49000;BME280;34808;48.144;17.158;2022-11-12T05:03:32;101475.72;;;7.96;100.00
49000;BME280;34808;48.144;17.158;2022-11-12T05:06:01;101496.78;;;7.98;100.00
49000;BME280;34808;48.144;17.158;2022-11-12T05:08:27;101484.66;;;7.95;100.00
49000;BME280;34808;48.144;17.158;2022-11-12T05:10:52;101450.28;;;7.75;100.00
49000;BME280;34808;48.144;17.158;2022-11-12T05:13:18;101478.41;;;7.86;100.00
49000;BME280;34808;48.144;17.158;2022-11-12T05:15:43;101496.13;;;7.96;100.00
49000;BME280;34808;48.144;17.158;2022-11-12T05:18:08;101508.50;;;8.05;100.00
49000;BME280;34808;48.144;17.158;2022-11-12T05:20:34;101510.06;;;7.98;100.00
49000;BME280;34808;48.144;17.158;2022-11-12T05:23:00;101465.19;;;7.76;100.00
49000;BME280;34808;48.144;17.158;2022-11-12T05:25:25;101495.66;;;7.62;100.00
49000;BME280;34808;48.144;17.158;2022-11-12T05:27:51;101454.41;;;7.39;100.00
49000;BME280;34808;48.144;17.158;2022-11-12T05:30:16;101469.72;;;7.56;100.00
49000;BME280;34808;48.144;17.158;2022-11-12T05:32:41;101498.28;;;7.72;100.00
49000;BME280;34808;48.144;17.158;2022-11-12T05:35:09;101468.88;;;7.55;100.00
49000;BME280;34808;48.144;17.158;2022-11-12T05:37:34;101510.91;;;7.88;100.00
49000;BME280;34808;48.144;17.158;2022-11-12T05:40:00;101458.44;;;7.54;100.00
49000;BME280;34808;48.144;17.158;2022-11-12T05:42:25;101478.88;;;7.71;100.00
49000;BME280;34808;48.144;17.158;2022-11-12T05:44:50;101470.09;;;7.71;100.00
49000;BME280;34808;48.144;17.158;2022-11-12T05:47:16;101510.22;;;7.96;100.00
49000;BME280;34808;48.144;17.158;2022-11-12T05:49:46;101461.88;;;7.64;100.00
49000;BME280;34808;48.144;17.158;2022-11-12T05:52:12;101510.22;;;7.96;100.00
49000;BME280;34808;48.144;17.158;2022-11-12T05:54:37;101489.69;;;7.88;100.00
49000;BME280;34808;48.144;17.158;2022-11-12T05:57:02;101413.97;;;7.37;100.00
49000;BME280;34808;48.144;17.158;2022-11-12T05:59:28;101361.59;;;7.01;100.00
49000;BME280;34808;48.144;17.158;2022-11-12T06:01:53;101500.03;;;7.91;100.00
49000;BME280;34808;48.144;17.158;2022-11-12T06:04:19;101309.81;;;6.69;100.00
49000;BME280;34808;48.144;17.158;2022-11-12T06:06:44;101321.06;;;6.81;100.00
49000;BME280;34808;48.144;17.158;2022-11-12T06:09:10;101373.13;;;7.20;100.00
49000;BME280;34808;48.144;17.158;2022-11-12T06:11:38;101509.75;;;8.01;100.00
49000;BME280;34808;48.144;17.158;2022-11-12T06:14:04;101410.88;;;7.42;100.00
49000;BME280;34808;48.144;17.158;2022-11-12T06:16:32;101503.34;;;8.03;100.00
49000;BME280;34808;48.144;17.158;2022-11-12T06:18:58;101525.91;;;8.18;100.00
49000;BME280;34808;48.144;17.158;2022-11-12T06:21:24;101562.50;;;8.14;100.00
49000;BME280;34808;48.144;17.158;2022-11-12T06:23:56;101519.22;;;8.13;100.00
49000;BME280;34808;48.144;17.158;2022-11-12T06:26:23;101248.28;;;6.37;100.00
49000;BME280;34808;48.144;17.158;2022-11-12T06:28:52;101527.31;;;8.22;100.00
49000;BME280;34808;48.144;17.158;2022-11-12T06:31:17;101517.69;;;8.11;100.00
49000;BME280;34808;48.144;17.158;2022-11-12T06:33:43;101516.84;;;8.10;100.00
49000;BME280;34808;48.144;17.158;2022-11-12T06:36:13;101524.22;;;8.16;100.00
49000;BME280;34808;48.144;17.158;2022-11-12T06:38:43;101498.63;;;7.97;100.00
49000;BME280;34808;48.144;17.158;2022-11-12T06:41:12;101491.31;;;8.09;100.00
49000;BME280;34808;48.144;17.158;2022-11-12T06:43:38;101346.78;;;7.18;100.00
49000;BME280;34808;48.144;17.158;2022-11-12T06:46:09;101416.59;;;7.76;100.00
49000;BME280;34808;48.144;17.158;2022-11-12T06:48:35;101487.72;;;8.29;100.00
49000;BME280;34808;48.144;17.158;2022-11-12T06:51:18;101519.28;;;8.60;100.00
49000;BME280;34808;48.144;17.158;2022-11-12T06:53:48;101517.03;;;8.65;100.00
49000;BME280;34808;48.144;17.158;2022-11-12T06:56:15;101496.72;;;8.46;100.00
49000;BME280;34808;48.144;17.158;2022-11-12T06:58:44;101552.19;;;8.77;100.00
49000;BME280;34808;48.144;17.158;2022-11-12T07:01:15;101474.84;;;8.34;100.00
49000;BME280;34808;48.144;17.158;2022-11-12T07:03:42;101499.31;;;8.56;100.00
49000;BME280;34808;48.144;17.158;2022-11-12T07:06:13;101559.34;;;8.95;100.00
49000;BME280;34808;48.144;17.158;2022-11-12T07:08:42;101561.22;;;9.03;100.00
49000;BME280;34808;48.144;17.158;2022-11-12T07:11:07;101539.84;;;9.05;100.00
49000;BME280;34808;48.144;17.158;2022-11-12T07:13:36;101562.16;;;9.30;100.00
49000;BME280;34808;48.144;17.158;2022-11-12T07:16:20;101565.13;;;9.45;100.00
49000;BME280;34808;48.144;17.158;2022-11-12T07:18:47;101528.19;;;9.42;100.00
49000;BME280;34808;48.144;17.158;2022-11-12T07:21:18;101560.34;;;9.76;100.00
49000;BME280;34808;48.144;17.158;2022-11-12T07:23:44;101538.97;;;9.86;100.00
49000;BME280;34808;48.144;17.158;2022-11-12T07:26:21;101552.75;;;10.16;100.00
49000;BME280;34808;48.144;17.158;2022-11-12T07:28:48;101549.97;;;10.26;100.00
49000;BME280;34808;48.144;17.158;2022-11-12T07:31:16;101571.34;;;10.43;100.00
49000;BME280;34808;48.144;17.158;2022-11-12T07:33:44;101408.28;;;9.54;100.00
49000;BME280;34808;48.144;17.158;2022-11-12T07:36:12;101536.25;;;10.48;100.00
49000;BME280;34808;48.144;17.158;2022-11-12T07:38:40;101554.69;;;10.76;100.00
49000;BME280;34808;48.144;17.158;2022-11-12T07:41:10;101518.88;;;10.79;100.00
49000;BME280;34808;48.144;17.158;2022-11-12T07:43:39;101362.53;;;9.85;100.00
49000;BME280;34808;48.144;17.158;2022-11-12T07:46:07;101522.53;;;10.86;100.00
49000;BME280;34808;48.144;17.158;2022-11-12T07:48:34;101545.41;;;11.22;100.00
49000;BME280;34808;48.144;17.158;2022-11-12T07:51:05;101544.09;;;11.35;100.00
49000;BME280;34808;48.144;17.158;2022-11-12T07:53:41;101516.91;;;11.39;100.00
49000;BME280;34808;48.144;17.158;2022-11-12T07:56:09;101481.94;;;11.26;100.00
49000;BME280;34808;48.144;17.158;2022-11-12T07:58:53;101489.56;;;11.46;100.00
49000;BME280;34808;48.144;17.158;2022-11-12T08:03:58;101499.78;;;11.99;100.00
49000;BME280;34808;48.144;17.158;2022-11-12T08:06:28;101414.94;;;11.78;100.00
49000;BME280;34808;48.144;17.158;2022-11-12T08:08:54;101472.09;;;12.40;100.00
49000;BME280;34808;48.144;17.158;2022-11-12T08:11:20;101474.41;;;12.67;100.00
49000;BME280;34808;48.144;17.158;2022-11-12T08:13:46;101506.59;;;13.21;97.28
49000;BME280;34808;48.144;17.158;2022-11-12T08:16:12;101494.25;;;13.35;95.44
49000;BME280;34808;48.144;17.158;2022-11-12T08:18:37;101414.53;;;13.15;93.52
49000;BME280;34808;48.144;17.158;2022-11-12T08:21:05;101469.50;;;13.72;91.42
49000;BME280;34808;48.144;17.158;2022-11-12T08:23:32;101539.72;;;14.35;90.31
49000;BME280;34808;48.144;17.158;2022-11-12T08:25:58;101531.84;;;14.33;89.18
49000;BME280;34808;48.144;17.158;2022-11-12T08:28:24;101337.78;;;13.16;88.19
49000;BME280;34808;48.144;17.158;2022-11-12T08:30:49;101513.53;;;14.52;87.48
49000;BME280;34808;48.144;17.158;2022-11-12T08:33:15;101473.66;;;14.42;86.71
49000;BME280;34808;48.144;17.158;2022-11-12T08:35:40;101499.31;;;14.74;85.79
49000;BME280;34808;48.144;17.158;2022-11-12T08:38:06;101554.34;;;15.07;84.91
49000;BME280;34808;48.144;17.158;2022-11-12T08:40:33;101540.22;;;15.20;84.21
49000;BME280;34808;48.144;17.158;2022-11-12T08:43:00;101517.84;;;15.13;82.51
49000;BME280;34808;48.144;17.158;2022-11-12T08:45:27;101548.72;;;15.52;81.03
49000;BME280;34808;48.144;17.158;2022-11-12T08:47:58;101485.97;;;15.25;80.67
49000;BME280;34808;48.144;17.158;2022-11-12T08:50:24;101548.16;;;15.64;79.67
49000;BME280;34808;48.144;17.158;2022-11-12T08:52:49;101519.69;;;15.63;78.84
49000;BME280;34808;48.144;17.158;2022-11-12T08:55:14;101571.50;;;15.92;77.80
49000;BME280;34808;48.144;17.158;2022-11-12T08:57:41;101572.75;;;15.96;76.86
49000;BME280;34808;48.144;17.158;2022-11-12T09:00:08;101599.41;;;15.98;75.97
49000;BME280;34808;48.144;17.158;2022-11-12T09:02:34;101561.06;;;15.75;75.90
49000;BME280;34808;48.144;17.158;2022-11-12T09:04:59;101428.72;;;15.10;75.16
49000;BME280;34808;48.144;17.158;2022-11-12T09:07:24;101582.31;;;16.06;75.40
49000;BME280;34808;48.144;17.158;2022-11-12T09:09:49;101442.53;;;15.14;75.36
49000;BME280;34808;48.144;17.158;2022-11-12T09:12:15;101516.94;;;15.56;75.21
49000;BME280;34808;48.144;17.158;2022-11-12T09:14:43;101597.34;;;16.22;74.49
49000;BME280;34808;48.144;17.158;2022-11-12T09:17:09;101606.19;;;16.23;74.69
49000;BME280;34808;48.144;17.158;2022-11-12T09:19:34;101574.91;;;16.08;74.43
49000;BME280;34808;48.144;17.158;2022-11-12T09:21:59;101600.91;;;16.36;74.08
49000;BME280;34808;48.144;17.158;2022-11-12T09:24:25;101587.88;;;16.33;73.62
49000;BME280;34808;48.144;17.158;2022-11-12T09:26:53;101508.50;;;16.02;73.28
49000;BME280;34808;48.144;17.158;2022-11-12T09:29:19;101576.16;;;16.55;72.85
49000;BME280;34808;48.144;17.158;2022-11-12T09:31:45;101623.47;;;16.98;72.62
49000;BME280;34808;48.144;17.158;2022-11-12T09:34:10;101606.09;;;17.07;71.98
49000;BME280;34808;48.144;17.158;2022-11-12T09:36:35;101577.75;;;17.12;72.85
49000;BME280;34808;48.144;17.158;2022-11-12T09:39:01;101598.91;;;17.28;72.98
49000;BME280;34808;48.144;17.158;2022-11-12T09:41:36;101620.03;;;17.45;73.11
49000;BME280;34808;48.144;17.158;2022-11-12T09:44:08;101601.41;;;17.50;73.37
49000;BME280;34808;48.144;17.158;2022-11-12T09:46:39;101483.53;;;16.71;72.90
49000;BME280;34808;48.144;17.158;2022-11-12T09:49:54;101611.34;;;17.57;73.10
49000;BME280;34808;48.144;17.158;2022-11-12T09:52:16;101608.22;;;17.53;72.20
49000;BME280;34808;48.144;17.158;2022-11-12T09:54:44;101575.72;;;17.21;71.91
49000;BME280;34808;48.144;17.158;2022-11-12T09:57:12;101582.53;;;17.23;72.01
49000;BME280;34808;48.144;17.158;2022-11-12T09:59:40;101552.03;;;16.89;71.72
49000;BME280;34808;48.144;17.158;2022-11-12T10:02:20;101479.53;;;16.39;71.92
49000;BME280;34808;48.144;17.158;2022-11-12T10:10:18;101605.44;;;16.92;71.96
49000;BME280;34808;48.144;17.158;2022-11-12T10:15:37;101610.88;;;17.05;71.75
49000;BME280;34808;48.144;17.158;2022-11-12T10:24:02;101595.97;;;17.03;72.10
49000;BME280;34808;48.144;17.158;2022-11-12T10:26:32;101592.06;;;17.33;71.57
49000;BME280;34808;48.144;17.158;2022-11-12T10:31:36;101481.06;;;16.90;70.21
49000;BME280;34808;48.144;17.158;2022-11-12T10:34:18;101609.84;;;17.95;69.81
49000;BME280;34808;48.144;17.158;2022-11-12T10:36:52;101608.78;;;18.23;69.46
49000;BME280;34808;48.144;17.158;2022-11-12T10:39:42;101595.47;;;18.35;68.31
49000;BME280;34808;48.144;17.158;2022-11-12T10:42:11;101507.44;;;18.02;67.84
49000;BME280;34808;48.144;17.158;2022-11-12T10:44:38;101584.69;;;18.75;67.75
49000;BME280;34808;48.144;17.158;2022-11-12T10:47:26;101588.59;;;18.86;67.17
49000;BME280;34808;48.144;17.158;2022-11-12T10:52:33;101568.94;;;19.04;66.62
49000;BME280;34808;48.144;17.158;2022-11-12T10:55:06;101578.56;;;19.26;66.10
49000;BME280;34808;48.144;17.158;2022-11-12T10:57:38;101585.31;;;19.42;65.43
49000;BME280;34808;48.144;17.158;2022-11-12T11:02:49;101541.81;;;19.69;65.00
49000;BME280;34808;48.144;17.158;2022-11-12T11:05:34;101582.97;;;20.09;64.42
49000;BME280;34808;48.144;17.158;2022-11-12T11:08:03;101575.63;;;19.97;63.39
49000;BME280;34808;48.144;17.158;2022-11-12T11:10:34;101590.41;;;20.14;62.84
49000;BME280;34808;48.144;17.158;2022-11-12T11:16:00;101603.31;;;20.11;62.63
49000;BME280;34808;48.144;17.158;2022-11-12T11:18:27;101563.81;;;20.10;63.07
49000;BME280;34808;48.144;17.158;2022-11-12T11:21:16;101588.75;;;20.13;62.20
49000;BME280;34808;48.144;17.158;2022-11-12T11:24:00;101596.47;;;20.16;61.47
49000;BME280;34808;48.144;17.158;2022-11-12T11:37:23;101577.47;;;20.84;59.38
49000;BME280;34808;48.144;17.158;2022-11-12T11:39:59;101571.06;;;20.79;59.25
49000;BME280;34808;48.144;17.158;2022-11-12T11:45:17;101564.88;;;20.90;59.58
49000;BME280;34808;48.144;17.158;2022-11-12T11:48:08;101570.25;;;21.09;59.56
49000;BME280;34808;48.144;17.158;2022-11-12T11:50:45;101548.28;;;20.86;59.00
49000;BME280;34808;48.144;17.158;2022-11-12T11:53:21;101544.19;;;20.96;59.32
49000;BME280;34808;48.144;17.158;2022-11-12T11:55:54;101251.22;;;19.42;58.47
49000;BME280;34808;48.144;17.158;2022-11-12T12:01:25;101496.34;;;21.98;57.49
49000;BME280;34808;48.144;17.158;2022-11-12T12:07:07;101546.56;;;22.59;56.69
49000;BME280;34808;48.144;17.158;2022-11-12T12:10:24;101486.91;;;22.47;55.82
49000;BME280;34808;48.144;17.158;2022-11-12T12:12:53;101543.09;;;22.93;55.11
49000;BME280;34808;48.144;17.158;2022-11-12T12:18:36;101543.16;;;23.33;54.79
49000;BME280;34808;48.144;17.158;2022-11-12T12:21:18;101533.34;;;23.67;54.10
49000;BME280;34808;48.144;17.158;2022-11-12T12:26:31;101549.13;;;24.15;53.45
49000;BME280;34808;48.144;17.158;2022-11-12T12:29:07;101524.13;;;24.41;53.07
49000;BME280;34808;48.144;17.158;2022-11-12T12:31:40;101532.91;;;24.81;52.37
49000;BME280;34808;48.144;17.158;2022-11-12T12:34:24;101512.72;;;24.77;51.96
49000;BME280;34808;48.144;17.158;2022-11-12T12:36:58;101428.03;;;24.40;51.30
49000;BME280;34808;48.144;17.158;2022-11-12T12:42:08;101523.97;;;25.19;50.88
49000;BME280;34808;48.144;17.158;2022-11-12T12:44:43;101532.25;;;25.40;50.67
49000;BME280;34808;48.144;17.158;2022-11-12T12:47:28;101420.19;;;24.87;50.26
49000;BME280;34808;48.144;17.158;2022-11-12T12:49:56;101515.56;;;25.31;50.04
49000;BME280;34808;48.144;17.158;2022-11-12T12:52:22;101506.78;;;25.18;50.15
49000;BME280;34808;48.144;17.158;2022-11-12T13:02:56;101516.84;;;25.72;48.88
49000;BME280;34808;48.144;17.158;2022-11-12T13:07:52;101499.03;;;25.48;48.72
49000;BME280;34808;48.144;17.158;2022-11-12T13:15:50;101501.50;;;25.55;47.98
49000;BME280;34808;48.144;17.158;2022-11-12T13:21:13;101431.31;;;25.19;47.67
49000;BME280;34808;48.144;17.158;2022-11-12T13:23:51;101520.38;;;25.67;47.41
49000;BME280;34808;48.144;17.158;2022-11-12T13:26:47;101485.97;;;25.56;47.57
49000;BME280;34808;48.144;17.158;2022-11-12T13:43:43;101504.59;;;21.79;51.36
49000;BME280;34808;48.144;17.158;2022-11-12T13:46:24;101519.06;;;21.44;52.71
49000;BME280;34808;48.144;17.158;2022-11-12T13:51:22;101337.66;;;19.23;54.47
49000;BME280;34808;48.144;17.158;2022-11-12T13:53:55;101343.44;;;18.64;55.32
49000;BME280;34808;48.144;17.158;2022-11-12T13:56:32;101482.69;;;19.16;56.05
49000;BME280;34808;48.144;17.158;2022-11-12T13:59:14;101494.50;;;18.89;56.60
49000;BME280;34808;48.144;17.158;2022-11-12T14:01:40;101508.44;;;18.86;56.93
49000;BME280;34808;48.144;17.158;2022-11-12T14:04:10;101496.78;;;18.60;57.42
49000;BME280;34808;48.144;17.158;2022-11-12T14:06:42;101526.47;;;18.60;58.18
49000;BME280;34808;48.144;17.158;2022-11-12T14:20:18;101425.78;;;17.07;61.15
49000;BME280;34808;48.144;17.158;2022-11-12T14:22:45;101492.25;;;17.34;62.05
49000;BME280;34808;48.144;17.158;2022-11-12T14:25:31;101490.81;;;17.11;63.68
49000;BME280;34808;48.144;17.158;2022-11-12T14:27:56;101487.09;;;17.19;64.79
49000;BME280;34808;48.144;17.158;2022-11-12T14:30:24;101387.13;;;16.74;66.25
49000;BME280;34808;48.144;17.158;2022-11-12T14:33:06;101519.09;;;17.82;67.73
49000;BME280;34808;48.144;17.158;2022-11-12T14:35:37;101491.56;;;17.80;67.82
49000;BME280;34808;48.144;17.158;2022-11-12T14:38:04;101520.28;;;18.00;67.95
49000;BME280;34808;48.144;17.158;2022-11-12T14:40:33;101463.63;;;17.54;68.29